Latest Weather Observations for Coldstream

IDV60901

Issued at 3:21 pm EDT Thursday 11 February 2016 (issued every 10 minutes, with the page automatically refreshed every 10 minutes)

About weather observations | Map of Melbourne area stations | Latest observations for Melbourne area | Other Formats
Station Details ID: 086383 Name: COLDSTREAM Lat: -37.72 Lon: 145.41 Height: 83.0 m
Data from the previous 72 hours. | See also: Recent months at Coldstream
Date/Time
EDT
Tmp

°C
App
Tmp
°C
Dew
Point
°C
Rel
Hum
%
Delta-T

°C
Wind Press
QNH
hPa
Press
MSL
hPa
Rain
since
9 am
mm
Dir
 
Spd
km/h
Gust
km/h
Spd
kts
Gust
kts
11/03:00pm 27.1 25.7 12.3 39 8.6 SSE 11 22 6 12 1014.3 1014.0 0.0
11/02:30pm 26.4 24.7 12.5 42 8.1 S 13 26 7 14 1014.6 1014.3 0.0
11/02:00pm 25.9 23.7 12.0 42 8.0 SSE 15 24 8 13 1015.0 1014.7 0.0
11/01:30pm 25.2 23.4 12.1 44 7.5 S 13 22 7 12 1015.1 1014.8 0.0
11/01:00pm 24.4 22.8 12.7 48 6.8 S 13 24 7 13 1015.4 1015.1 0.0
11/12:30pm 23.8 21.3 12.4 48 6.5 SSE 17 24 9 13 1015.9 1015.6 0.0
11/12:00pm 24.2 22.5 13.7 52 6.2 SE 15 22 8 12 1016.4 1016.1 0.0
11/11:30am 22.9 21.4 13.1 54 5.7 SSE 13 20 7 11 1016.7 1016.4 0.0
11/11:00am 22.3 20.6 13.6 58 5.0 S 15 22 8 12 1016.9 1016.6 0.0
11/10:30am 21.8 20.1 13.7 60 4.7 SE 15 24 8 13 1016.9 1016.6 0.0
11/10:00am 20.7 18.3 12.7 60 4.5 SE 17 24 9 13 1017.1 1016.8 0.0
11/09:30am 20.0 17.3 13.0 64 4.0 SE 19 28 10 15 1017.2 1016.9 0.0
11/09:00am 18.9 17.4 13.1 69 3.3 SE 13 22 7 12 1017.3 1017.0 0.0
11/08:30am 16.8 18.0 13.7 82 1.8 CALM 0 0 0 0 1017.2 1016.9 0.0
11/08:00am 15.3 16.6 14.0 92 0.7 CALM 0 0 0 0 1017.0 1016.7 0.0
11/07:30am 14.0 14.6 13.1 94 0.5 NNE 2 6 1 3 1016.9 1016.6 0.0
11/07:00am 14.0 15.0 13.2 95 0.4 CALM 0 0 0 0 1016.6 1016.3 0.0
11/06:30am 14.1 15.1 13.3 95 0.4 CALM 0 0 0 0 1016.2 1015.9 0.0
11/06:00am 14.1 15.2 13.6 97 0.3 CALM 0 0 0 0 1015.9 1015.6 0.0
11/05:30am 13.7 14.7 13.2 97 0.3 CALM 0 0 0 0 1015.8 1015.5 0.0
11/05:00am 13.1 13.9 12.6 97 0.3 CALM 0 0 0 0 1015.7 1015.4 0.0
11/04:30am 12.3 12.8 11.7 96 0.3 CALM 0 0 0 0 1015.6 1015.3 0.0
11/04:00am 11.7 12.0 10.8 94 0.5 CALM 0 0 0 0 1015.5 1015.2 0.0
11/03:30am 11.9 12.1 10.6 92 0.7 CALM 0 0 0 0 1015.5 1015.2 0.0
11/03:00am 12.9 13.4 11.5 91 0.7 CALM 0 0 0 0 1015.6 1015.3 0.0
11/02:30am 14.2 14.9 12.2 88 1.1 CALM 0 0 0 0 1015.9 1015.6 0.0
11/02:00am 15.2 14.9 12.7 85 1.4 S 6 9 3 5 1016.1 1015.8 0.0
11/01:30am 15.8 15.4 13.1 84 1.5 SSE 7 11 4 6 1016.2 1015.9 0.0
11/01:00am 16.1 15.8 13.4 84 1.5 S 7 13 4 7 1016.4 1016.1 0.0
11/12:30am 16.3 16.0 13.2 82 1.7 SSE 7 15 4 8 1016.5 1016.2 0.0
11/12:00am 16.4 16.0 13.1 81 1.8 SSE 7 13 4 7 1016.4 1016.1 0.0
 
Date/Time
EDT
Tmp

°C
App
Tmp
°C
Dew
Point
°C
Rel
Hum
%
Delta-T

°C
Wind Press
QNH
hPa
Press
MSL
hPa
Rain
since
9 am
mm
Dir
 
Spd
km/h
Gust
km/h
Spd
kts
Gust
kts
10/11:30pm 16.5 16.6 12.7 78 2.1 SSE 4 9 2 5 1016.4 1016.1 0.0
10/11:00pm 17.2 16.5 12.1 72 2.8 S 7 9 4 5 1016.4 1016.1 0.0
10/10:30pm 17.9 15.8 11.2 65 3.6 SSE 13 19 7 10 1016.1 1015.8 0.0
10/10:00pm 18.3 16.4 11.8 66 3.6 SSE 13 24 7 13 1015.9 1015.6 0.0
10/09:30pm 19.0 17.8 12.7 67 3.5 S 11 17 6 9 1015.5 1015.2 0.0
10/09:00pm 19.7 18.4 12.5 63 4.1 SSE 11 17 6 9 1015.2 1014.9 0.0
10/08:30pm 20.8 19.6 12.8 60 4.6 SSE 11 17 6 9 1014.8 1014.5 0.0
10/08:00pm 22.0 20.5 13.1 57 5.1 SSE 13 20 7 11 1014.7 1014.4 0.0
10/07:30pm 23.2 21.2 12.8 52 6.0 SSE 15 24 8 13 1014.5 1014.2 0.0
10/07:00pm 24.3 22.5 13.2 50 6.5 SSE 15 24 8 13 1014.1 1013.8 0.0
10/06:30pm 25.5 24.0 14.3 50 6.7 SSE 15 24 8 13 1013.7 1013.5 0.0
10/06:00pm 26.2 25.0 14.0 47 7.3 S 13 22 7 12 1013.4 1013.2 0.0
10/05:30pm 26.0 24.2 13.2 45 7.5 SSE 15 24 8 13 1013.3 1013.1 0.0
10/05:00pm 27.0 25.9 14.4 46 7.6 SSE 13 24 7 13 1013.2 1013.0 0.0
10/04:30pm 27.6 25.3 14.6 45 7.9 SW 20 28 11 15 1013.1 1012.9 0.0
10/04:00pm 27.3 25.8 14.3 45 7.8 SW 15 28 8 15 1013.2 1013.0 0.0
10/03:30pm 27.2 26.7 13.9 44 7.9 ESE 9 17 5 9 1013.4 1013.2 0.0
10/03:00pm 26.7 26.8 14.5 47 7.3 E 7 17 4 9 1013.7 1013.5 0.0
10/02:30pm 26.2 26.5 15.9 53 6.3 E 9 20 5 11 1014.1 1013.8 0.0
10/02:00pm 25.1 25.4 14.9 53 6.1 W 7 19 4 10 1014.5 1014.2 0.0
10/01:30pm 23.8 24.5 14.5 56 5.5 NNW 4 9 2 5 1014.8 1014.5 0.0
10/01:00pm 22.9 23.7 14.7 60 4.9 W 4 7 2 4 1015.2 1014.9 0.0
10/12:30pm 21.7 21.9 14.1 62 4.4 SSW 6 9 3 5 1015.7 1015.4 0.0
10/12:00pm 21.5 21.4 14.9 66 3.9 ESE 9 13 5 7 1015.9 1015.6 0.0
10/11:30am 19.7 19.9 14.3 71 3.1 WNW 6 15 3 8 1016.3 1016.0 0.0
10/11:00am 19.0 20.1 14.5 75 2.6 SW 2 11 1 6 1016.6 1016.3 0.0
10/10:30am 18.1 19.4 14.2 78 2.2 CALM 0 7 0 4 1016.6 1016.3 0.0
10/10:00am 17.5 19.2 15.1 86 1.4 CALM 0 0 0 0 1016.7 1016.4 0.0
10/09:30am 17.0 18.4 15.3 90 1.0 E 2 6 1 3 1016.8 1016.5 0.0
10/09:00am 17.0 18.6 15.9 93 0.6 E 2 7 1 4 1016.7 1016.4 0.0
10/08:30am 16.6 18.3 15.3 92 0.8 CALM 0 0 0 0 1016.5 1016.2 0.0
10/08:00am 16.5 18.3 15.5 94 0.6 CALM 0 0 0 0 1016.0 1015.7 0.0
10/07:30am 16.5 17.9 15.5 94 0.6 SSW 2 7 1 4 1015.8 1015.5 0.0
10/07:00am 16.3 18.0 15.3 94 0.6 CALM 0 2 0 1 1015.4 1015.1 0.0
10/06:30am 16.3 18.0 15.3 94 0.6 CALM 0 0 0 0 1014.9 1014.6 0.0
10/06:00am 16.2 17.9 15.2 94 0.6 CALM 0 0 0 0 1015.2 1014.9 0.0
10/05:30am 16.3 17.7 15.3 94 0.6 SSE 2 6 1 3 1015.2 1014.9 0.0
10/05:00am 16.2 17.5 15.2 94 0.6 SSE 2 7 1 4 1015.4 1015.1 0.0
10/04:30am 16.0 16.4 15.4 96 0.3 E 7 9 4 5 1015.5 1015.2 0.0
10/04:00am 15.7 17.4 15.2 97 0.3 CALM 0 0 0 0 1015.5 1015.2 0.0
10/03:30am 15.1 16.7 14.8 98 0.2 CALM 0 0 0 0 1015.5 1015.2 0.0
10/03:00am 14.0 15.1 13.5 97 0.3 CALM 0 0 0 0 1015.7 1015.4 0.0
10/02:30am 12.1 12.5 11.3 95 0.4 CALM 0 0 0 0 1016.0 1015.7 0.0
10/02:00am 12.1 12.5 11.2 94 0.5 CALM 0 0 0 0 1016.2 1015.9 0.0
10/01:30am 12.6 13.1 11.5 93 0.6 CALM 0 0 0 0 1016.3 1016.0 0.0
10/01:00am 12.9 13.4 11.6 92 0.7 CALM 0 0 0 0 1016.5 1016.2 0.0
10/12:30am 13.4 14.0 11.8 90 0.9 CALM 0 0 0 0 1016.6 1016.3 0.0
10/12:00am 14.0 14.8 12.4 90 0.9 CALM 0 0 0 0 1016.7 1016.4 0.0
 
Date/Time
EDT
Tmp

°C
App
Tmp
°C
Dew
Point
°C
Rel
Hum
%
Delta-T

°C
Wind Press
QNH
hPa
Press
MSL
hPa
Rain
since
9 am
mm
Dir
 
Spd
km/h
Gust
km/h
Spd
kts
Gust
kts
09/11:30pm 15.0 15.9 12.9 87 1.2 CALM 0 0 0 0 1017.0 1016.7 0.0
09/11:00pm 16.2 17.1 14.0 87 1.2 SW 2 9 1 5 1017.2 1016.9 0.0
09/10:30pm 17.1 17.1 13.6 80 2.0 ESE 6 7 3 4 1017.2 1016.9 0.0
09/10:00pm 18.3 18.3 14.2 77 2.4 SE 7 11 4 6 1017.2 1016.9 0.0
09/09:30pm 19.3 19.0 14.3 73 2.9 SSE 9 15 5 8 1017.0 1016.7 0.0
09/09:00pm 20.1 19.4 14.2 69 3.4 SSE 11 19 6 10 1016.8 1016.5 0.0
09/08:30pm 21.2 19.8 14.6 66 3.9 SSE 15 28 8 15 1016.6 1016.3 0.0
09/08:00pm 22.7 21.0 14.8 61 4.7 SSE 17 26 9 14 1016.6 1016.3 0.0
09/07:30pm 24.5 23.2 14.9 55 5.8 SSE 15 20 8 11 1016.4 1016.1 0.0
09/07:00pm 25.5 23.6 15.2 53 6.2 SSE 19 26 10 14 1016.1 1015.8 0.0
09/06:30pm 27.1 25.9 15.1 47 7.3 SSE 15 24 8 13 1015.9 1015.6 0.0
09/06:00pm 28.0 26.9 14.3 43 8.2 SSE 13 19 7 10 1015.8 1015.5 0.0
09/05:30pm 28.3 26.4 14.2 42 8.5 SW 17 28 9 15 1016.0 1015.7 0.0
09/05:00pm 28.7 26.5 14.9 43 8.4 SW 20 32 11 17 1016.4 1016.1 0.0
09/04:30pm 29.2 29.0 14.6 41 8.9 SE 9 17 5 9 1016.6 1016.3 0.0
09/04:00pm 28.9 27.9 14.7 42 8.6 ESE 13 20 7 11 1016.9 1016.6 0.0
09/03:30pm 28.4 27.0 13.5 40 8.9 SSE 13 24 7 13 1017.3 1017.0 0.0
09/03:00pm 27.8 27.5 13.3 40 8.6 SE 7 11 4 6 1017.8 1017.5 0.0
09/02:30pm 27.2 27.3 13.9 44 7.9 WSW 6 11 3 6 1018.3 1018.0 0.0
09/02:00pm 27.3 26.7 14.7 46 7.6 SE 11 17 6 9 1018.7 1018.4 0.0
09/01:30pm 26.0 25.5 12.5 43 7.8 S 7 15 4 8 1019.1 1018.8 0.0
09/01:00pm 24.6 23.2 12.2 46 7.1 SE 11 15 6 8 1019.5 1019.3 0.0
09/12:30pm 24.1 23.0 13.0 50 6.4 SE 11 17 6 9 1020.0 1019.8 0.0
09/12:00pm 23.1 22.8 13.3 54 5.7 SE 7 15 4 8 1020.5 1020.3 0.0
09/11:30am 22.1 21.7 12.9 56 5.3 NNE 7 11 4 6 1020.8 1020.6 0.0
09/11:00am 21.4 21.1 12.8 58 4.9 SSE 6 13 3 7 1021.1 1020.9 0.0
09/10:30am 20.2 19.2 12.4 61 4.4 SE 9 17 5 9 1021.3 1021.1 0.0
09/10:00am 19.5 19.2 12.8 65 3.8 S 6 13 3 7 1021.4 1021.2 0.0
09/09:30am 18.7 18.0 13.1 70 3.2 SE 9 17 5 9 1021.8 1021.6 0.0
09/09:00am 17.7 16.0 12.4 71 2.9 SSE 13 17 7 9 1021.9 1021.7 0.0
09/08:30am 17.5 15.8 12.4 72 2.8 SSE 13 19 7 10 1021.9 1021.7 0.0
09/08:00am 16.6 16.0 11.7 73 2.7 SSE 6 9 3 5 1021.8 1021.6 0.0
09/07:30am 15.5 14.2 11.3 76 2.3 SSE 9 15 5 8 1021.7 1021.5 0.0
09/07:00am 15.3 13.6 11.3 77 2.1 SSE 11 17 6 9 1021.6 1021.4 0.0
09/06:30am 15.8 14.6 11.6 76 2.3 SSE 9 15 5 8 1021.5 1021.3 0.0
09/06:00am 16.0 14.5 12.0 77 2.2 SSE 11 19 6 10 1021.3 1021.1 0.0
09/05:30am 16.0 15.0 12.2 78 2.1 SE 9 15 5 8 1021.1 1020.9 0.0
09/05:00am 16.1 14.8 12.5 79 2.0 SSE 11 19 6 10 1021.0 1020.8 0.0
09/04:30am 15.9 15.4 12.5 80 1.9 SSE 7 13 4 7 1021.0 1020.8 0.0
09/04:00am 15.7 15.2 12.8 83 1.6 S 7 11 4 6 1021.1 1020.9 0.0
09/03:30am 15.2 15.4 12.9 86 1.3 SSW 4 9 2 5 1021.3 1021.1 0.0
09/03:00am 14.6 15.6 13.1 91 0.8 CALM 0 7 0 4 1021.4 1021.2 0.0
09/02:30am 13.7 13.3 12.4 92 0.7 WNW 6 9 3 5 1021.6 1021.4 0.0
09/02:00am 14.0 14.3 12.2 89 1.0 S 2 6 1 3 1021.7 1021.5 0.0
09/01:30am 14.5 14.0 12.5 88 1.1 SSW 7 9 4 5 1022.0 1021.8 0.0
09/01:00am 14.7 13.8 12.6 87 1.1 S 9 11 5 6 1022.3 1022.1 0.0
09/12:30am 14.7 14.3 12.4 86 1.3 S 6 9 3 5 1022.5 1022.3 0.0
09/12:00am 15.3 15.0 12.8 85 1.4 S 6 7 3 4 1022.7 1022.5 0.0
 
Date/Time
EDT
Tmp

°C
App
Tmp
°C
Dew
Point
°C
Rel
Hum
%
Delta-T

°C
Wind Press
QNH
hPa
Press
MSL
hPa
Rain
since
9 am
mm
Dir
 
Spd
km/h
Gust
km/h
Spd
kts
Gust
kts
08/11:30pm 15.7 15.4 12.6 82 1.7 S 6 7 3 4 1022.8 1022.6 0.0
08/11:00pm 16.4 16.0 12.9 80 1.9 SSE 7 11 4 6 1022.9 1022.7 0.0
08/10:30pm 16.9 16.1 13.0 78 2.2 SSE 9 17 5 9 1022.9 1022.7 0.0
08/10:00pm 17.4 16.6 12.9 75 2.5 SSE 9 19 5 10 1022.8 1022.6 0.0
08/09:30pm 17.9 17.1 12.8 72 2.9 SSE 9 17 5 9 1022.4 1022.2 0.0
08/09:00pm 18.6 16.6 12.6 68 3.4 SSE 15 24 8 13 1022.0 1021.8 0.0
08/08:30pm 19.4 17.5 11.7 61 4.3 SSE 13 22 7 12 1021.7 1021.5 0.0
08/08:00pm 20.7 18.6 12.4 59 4.7 S 15 22 8 12 1021.4 1021.2 0.0
08/07:30pm 21.6 19.3 13.0 58 4.9 SSE 17 24 9 13 1021.1 1020.9 0.0
08/07:00pm 22.7 20.9 13.2 55 5.5 S 15 28 8 15 1020.8 1020.6 0.0
08/06:30pm 23.2 20.5 13.4 54 5.7 S 20 28 11 15 1020.6 1020.4 0.0
08/06:00pm 24.4 21.9 14.2 53 6.0 SSE 20 32 11 17 1020.5 1020.3 0.0
08/05:30pm 24.6 21.9 13.5 50 6.5 SSE 20 30 11 16 1020.3 1020.1 0.0
08/05:00pm 26.0 24.5 14.1 47 7.1 S 15 24 8 13 1020.4 1020.2 0.0
08/04:30pm 25.8 24.0 13.3 46 7.3 SSE 15 22 8 12 1020.5 1020.3 0.0
08/04:00pm 26.0 24.8 14.1 47 7.1 S 13 26 7 14 1020.6 1020.4 0.0
08/03:30pm 25.8 24.6 14.0 48 7.0 SSE 13 22 7 12 1020.8 1020.6 0.0

Latest Capital City Observations: Canberra | Sydney | Melbourne | Brisbane | Adelaide | Perth | Hobart | Darwin

Other Formats:

Comma delimited format used in spreadsheet applications
http://www.bom.gov.au/fwo/IDV60901/IDV60901.94864.axf

JavaScript Object Notation format (JSON) in row-major order
http://www.bom.gov.au/fwo/IDV60901/IDV60901.94864.json